Weather History for New Richmond, WI

Change the Weather History Date:

Sunday, October 27, 2013

  Actual Average (KMSP) Record (KMSP)
Temperature  
Mean Temperature 42 °F 44 °F  
Max Temperature 55 °F 53 °F 74 °F (1922)
Min Temperature 29 °F 36 °F 13 °F (1997)
Degree Days  
Heating Degree Days 23 21  
Month to date heating degree days 418  
Since 1 July heating degree days 591  
Cooling Degree Days 0 0  
Month to date cooling degree days 3  
Year to date cooling degree days 750  
Moisture  
Dew Point 29 °F    
Average Humidity 67    
Maximum Humidity 94    
Minimum Humidity 37    
Precipitation  
Precipitation 0.00 in 0.07 in 2.22 in (1971)
Month to date precipitation 2.19  
Year to date precipitation 27.44  
Snow  
Snow 0.00 in 0.00 in 2.60 in (1919)
Month to date snowfall 0.4  
Since 1 July snowfall 0.4  
Since 1 September snowfall 0.4  
Snow Depth -    
Sea Level Pressure  
Sea Level Pressure 29.93 in    
Wind  
Wind Speed 8 mph (WSW)    
Max Wind Speed 17 mph    
Max Gust Speed 26 mph    
Visibility 10 miles    
Events      
T = Trace of Precipitation, MM = Missing Value Source: NWS Daily Summary

Daily Weather History Graph

Daily Weather History Graph

Search for Another Location

Airport:

Trip Planner

Search our weather history database for the weather conditions in past years. The results will help you decide how hot, cold, wet, or windy it might be!

Date:

Astronomy

Oct. 27, 2013 Rise Set
Actual Time 7:42 AM CDT 6:04 PM CDT
Civil Twilight 7:12 AM CDT 6:35 PM CDT
Nautical Twilight 6:37 AM CDT 7:09 PM CDT
Astronomical Twilight 6:03 AM CDT 7:43 PM CDT
Moon 12:22 AM CDT (10/27) 2:30 PM CDT (10/27)
Length of Visible Light 11h 23m
Length of Day
10h 22m
Last Quarter, 43% of the Moon is Illuminated
Oct 27
Last Quarter
Nov 3
New
Nov 9
First Quarter
Nov 17
Full
Nov 25
Last Quarter

Hourly Weather History & Observations

Time (CDT) Temp. Windchill Dew Point Humidity Pressure Visibility Wind Dir Wind Speed Gust Speed Precip Events Conditions
12:15 AM 33.3 °F 25.1 °F 27.1 °F 78% 30.02 in 10.0 mi West 10.4 mph - N/A   Clear
12:35 AM 34.2 °F 31.2 °F 27.1 °F 75% 30.01 in 10.0 mi West 3.5 mph - N/A   Mostly Cloudy
12:55 AM 33.3 °F 28.9 °F 27.0 °F 78% 30.00 in 10.0 mi WSW 4.6 mph - N/A   Mostly Cloudy
1:15 AM 32.9 °F 29.8 °F 28.0 °F 82% 30.00 in 10.0 mi WSW 3.5 mph - N/A   Overcast
1:35 AM 33.6 °F - 28.0 °F 80% 30.00 in 10.0 mi Calm Calm - N/A   Mostly Cloudy
1:55 AM 33.3 °F - 28.2 °F 82% 29.99 in 10.0 mi Calm Calm - N/A   Clear
2:15 AM 32.0 °F - 27.5 °F 83% 29.98 in 10.0 mi Calm Calm - N/A   Clear
2:35 AM 30.9 °F 26.2 °F 28.6 °F 91% 29.97 in 10.0 mi SSW 4.6 mph - N/A   Clear
2:55 AM 30.9 °F 25.2 °F 27.5 °F 87% 29.97 in 10.0 mi SSW 5.8 mph - N/A   Clear
3:15 AM 31.5 °F 25.8 °F 27.1 °F 84% 29.97 in 10.0 mi SSW 5.8 mph - N/A   Clear
3:35 AM 30.6 °F 24.7 °F 27.1 °F 87% 29.96 in 10.0 mi SSW 5.8 mph - N/A   Clear
3:55 AM 30.6 °F 24.7 °F 27.1 °F 87% 29.95 in 10.0 mi SSW 5.8 mph - N/A   Clear
4:15 AM 30.2 °F 24.3 °F 27.5 °F 90% 29.95 in 10.0 mi SSW 5.8 mph - N/A   Clear
4:35 AM 30.2 °F 24.3 °F 27.9 °F 91% 29.94 in 10.0 mi SSW 5.8 mph - N/A   Clear
4:55 AM 30.0 °F 25.2 °F 28.0 °F 92% 29.94 in 10.0 mi South 4.6 mph - N/A   Clear
5:15 AM 29.7 °F 24.7 °F 27.9 °F 93% 29.94 in 10.0 mi South 4.6 mph - N/A   Clear
5:35 AM 29.1 °F 25.4 °F 27.5 °F 94% 29.94 in 10.0 mi SSW 3.5 mph - N/A   Clear
5:55 AM 29.3 °F 22.3 °F 27.9 °F 94% 29.93 in 10.0 mi South 6.9 mph - N/A   Clear
6:15 AM 29.7 °F 22.8 °F 27.0 °F 90% 29.92 in 10.0 mi South 6.9 mph - N/A   Clear
6:35 AM 29.8 °F 22.2 °F 27.0 °F 89% 29.90 in 10.0 mi South 8.1 mph - N/A   Clear
6:55 AM 30.0 °F 22.4 °F 26.8 °F 88% 29.89 in 10.0 mi South 8.1 mph - N/A   Clear
7:15 AM 30.0 °F 22.4 °F 26.8 °F 88% 29.89 in 10.0 mi SSW 8.1 mph - N/A   Clear
7:35 AM 30.2 °F 22.6 °F 26.6 °F 86% 29.88 in 10.0 mi South 8.1 mph - N/A   Clear
7:55 AM 30.2 °F 23.4 °F 26.6 °F 86% 29.88 in 10.0 mi South 6.9 mph - N/A   Clear
8:15 AM 30.9 °F 24.3 °F 27.0 °F 85% 29.88 in 10.0 mi South 6.9 mph - N/A   Clear
8:35 AM 32.0 °F 24.8 °F 27.5 °F 83% 29.87 in 10.0 mi South 8.1 mph - N/A   Clear
8:55 AM 33.6 °F 25.6 °F 28.2 °F 81% 29.87 in 10.0 mi SSW 10.4 mph - N/A   Clear
9:15 AM 35.6 °F 27.1 °F 28.8 °F 76% 29.85 in 10.0 mi SSW 12.7 mph 16.1 mph N/A   Clear
9:35 AM 36.7 °F 28.4 °F 28.6 °F 72% 29.84 in 10.0 mi SSW 12.7 mph 20.7 mph N/A   Clear
9:55 AM 39.2 °F 31.2 °F 29.3 °F 68% 29.84 in 10.0 mi SSW 13.8 mph - N/A   Clear
10:15 AM 41.2 °F 34.5 °F 29.3 °F 63% 29.84 in 10.0 mi SSW 11.5 mph - N/A   Clear
10:35 AM 42.6 °F 35.6 °F 28.9 °F 58% 29.84 in 10.0 mi SW 13.8 mph 18.4 mph N/A   Clear
10:55 AM 43.7 °F 37.7 °F 29.3 °F 57% 29.84 in 10.0 mi SSW 11.5 mph - N/A   Clear
11:15 AM 45.0 °F 38.2 °F 29.1 °F 54% 29.82 in 10.0 mi SSW 15.0 mph 19.6 mph N/A   Clear
11:35 AM 47.1 °F - 30.0 °F 51% 29.83 in 10.0 mi SW 10.4 mph - N/A   Clear
11:55 AM 48.4 °F - 29.7 °F 48% 29.82 in 10.0 mi SW 11.5 mph - N/A   Clear
12:15 PM 50.0 °F - 29.1 °F 45% 29.82 in 10.0 mi SW 13.8 mph - N/A   Clear
12:35 PM 51.1 °F - 28.9 °F 43% 29.82 in 10.0 mi WSW 9.2 mph 17.3 mph N/A   Clear
12:55 PM 51.8 °F - 28.9 °F 41% 29.82 in 10.0 mi West 9.2 mph 16.1 mph N/A   Clear
1:15 PM 53.1 °F - 28.9 °F 40% 29.82 in 10.0 mi WSW 9.2 mph - N/A   Clear
1:35 PM 54.0 °F - 28.8 °F 38% 29.81 in 10.0 mi WSW 9.2 mph - N/A   Clear
1:55 PM 54.3 °F - 28.2 °F 37% 29.81 in 10.0 mi West 8.1 mph - N/A   Clear
2:15 PM 55.0 °F - 28.9 °F 37% 29.81 in 10.0 mi WNW 8.1 mph - N/A   Clear
2:35 PM 55.4 °F - 29.3 °F 37% 29.81 in 10.0 mi West 9.2 mph - N/A   Clear
2:55 PM 55.2 °F - 29.3 °F 37% 29.81 in 10.0 mi WNW 10.4 mph - N/A   Clear
3:15 PM 54.9 °F - 30.0 °F 39% 29.82 in 10.0 mi NNW 5.8 mph - N/A   Clear
3:35 PM 54.9 °F - 29.7 °F 38% 29.83 in 10.0 mi NW 8.1 mph - N/A   Clear
3:55 PM 55.6 °F - 30.4 °F 38% 29.84 in 10.0 mi WNW 8.1 mph - N/A   Clear
4:15 PM 55.6 °F - 30.4 °F 38% 29.85 in 10.0 mi NNW 10.4 mph - N/A   Clear
4:35 PM 54.5 °F - 30.9 °F 41% 29.86 in 10.0 mi NNW 10.4 mph - N/A   Clear
4:55 PM 53.8 °F - 31.1 °F 42% 29.87 in 10.0 mi NW 10.4 mph - N/A   Clear
5:15 PM 52.9 °F - 31.8 °F 45% 29.88 in 10.0 mi NNW 10.4 mph - N/A   Clear
5:35 PM 51.4 °F - 32.0 °F 47% 29.89 in 10.0 mi North 8.1 mph - N/A   Clear
5:55 PM 49.5 °F - 32.0 °F 51% 29.91 in 10.0 mi North 9.2 mph - N/A   Clear
6:15 PM 47.5 °F - 32.0 °F 55% 29.92 in 10.0 mi North 8.1 mph - N/A   Clear
6:35 PM 45.9 °F 41.7 °F 32.0 °F 58% 29.94 in 10.0 mi North 8.1 mph - N/A   Clear
6:55 PM 43.5 °F 40.1 °F 32.0 °F 64% 29.95 in 10.0 mi NNE 5.8 mph - N/A   Clear
7:15 PM 43.0 °F 40.3 °F 32.0 °F 65% 29.96 in 10.0 mi NNE 4.6 mph - N/A   Clear
7:35 PM 41.9 °F 40.0 °F 31.6 °F 67% 29.97 in 10.0 mi NNE 3.5 mph - N/A   Clear
7:55 PM 39.0 °F 34.8 °F 31.6 °F 75% 29.99 in 10.0 mi NNE 5.8 mph - N/A   Clear
8:15 PM 40.3 °F 34.9 °F 31.6 °F 71% 30.00 in 10.0 mi NNE 8.1 mph - N/A   Clear
8:35 PM 42.3 °F 36.3 °F 32.0 °F 67% 30.02 in 10.0 mi NNE 10.4 mph - N/A   Mostly Cloudy
8:55 PM 43.7 °F 36.0 °F 31.3 °F 62% 30.03 in 10.0 mi NNE 17.3 mph 26.5 mph N/A   Mostly Cloudy
9:15 PM 42.3 °F 34.8 °F 30.0 °F 62% 30.05 in 10.0 mi NNE 15.0 mph - N/A   Scattered Clouds
9:35 PM 41.4 °F 33.6 °F 30.2 °F 65% 30.06 in 10.0 mi NNE 15.0 mph 20.7 mph N/A   Scattered Clouds
9:55 PM 40.5 °F 34.1 °F 30.2 °F 67% 30.07 in 10.0 mi NNE 10.4 mph - N/A   Scattered Clouds
10:15 PM 40.3 °F 33.9 °F 30.7 °F 69% 30.09 in 10.0 mi NNE 10.4 mph - N/A   Mostly Cloudy
10:35 PM 41.0 °F 33.5 °F 30.2 °F 65% 30.09 in 10.0 mi NNE 13.8 mph - N/A   Overcast
10:55 PM 40.3 °F 33.0 °F 30.0 °F 67% 30.11 in 10.0 mi NNE 12.7 mph - N/A   Overcast
11:15 PM 39.6 °F 32.5 °F 29.8 °F 68% 30.12 in 10.0 mi NNE 11.5 mph - N/A   Overcast
11:35 PM 38.5 °F 31.6 °F 29.7 °F 71% 30.13 in 10.0 mi NNE 10.4 mph - N/A   Scattered Clouds
11:55 PM 38.3 °F 31.4 °F 29.3 °F 70% 30.14 in 10.0 mi NNE 10.4 mph - N/A   Clear